sensor_id;sensor_type;location;lat;lon;timestamp;P1;durP1;ratioP1;P2;durP2;ratioP2
8048;SDS011;20935;42.660;23.342;2024-01-27T00:00:27;6.73;;;3.40;;
8048;SDS011;20935;42.660;23.342;2024-01-27T00:03:17;4.90;;;3.07;;
8048;SDS011;20935;42.660;23.342;2024-01-27T00:06:06;3.13;;;2.30;;
8048;SDS011;20935;42.660;23.342;2024-01-27T00:08:53;4.47;;;2.87;;
8048;SDS011;20935;42.660;23.342;2024-01-27T00:11:42;8.00;;;3.13;;
8048;SDS011;20935;42.660;23.342;2024-01-27T00:14:29;8.47;;;3.10;;
8048;SDS011;20935;42.660;23.342;2024-01-27T00:17:19;4.40;;;2.73;;
8048;SDS011;20935;42.660;23.342;2024-01-27T00:20:09;7.07;;;3.50;;
8048;SDS011;20935;42.660;23.342;2024-01-27T00:22:56;5.53;;;2.80;;
8048;SDS011;20935;42.660;23.342;2024-01-27T00:25:43;4.30;;;2.50;;
8048;SDS011;20935;42.660;23.342;2024-01-27T00:28:32;5.67;;;3.10;;
8048;SDS011;20935;42.660;23.342;2024-01-27T00:31:18;4.23;;;2.70;;
8048;SDS011;20935;42.660;23.342;2024-01-27T00:34:05;4.87;;;3.17;;
8048;SDS011;20935;42.660;23.342;2024-01-27T00:36:52;3.90;;;2.67;;
8048;SDS011;20935;42.660;23.342;2024-01-27T00:39:39;6.87;;;2.70;;
8048;SDS011;20935;42.660;23.342;2024-01-27T00:42:26;7.47;;;3.00;;
8048;SDS011;20935;42.660;23.342;2024-01-27T00:45:14;8.47;;;3.47;;
8048;SDS011;20935;42.660;23.342;2024-01-27T00:48:01;8.03;;;3.20;;
8048;SDS011;20935;42.660;23.342;2024-01-27T00:50:48;4.23;;;2.67;;
8048;SDS011;20935;42.660;23.342;2024-01-27T00:53:35;6.10;;;2.87;;
8048;SDS011;20935;42.660;23.342;2024-01-27T00:56:25;3.70;;;2.60;;
8048;SDS011;20935;42.660;23.342;2024-01-27T00:59:12;5.57;;;3.20;;
8048;SDS011;20935;42.660;23.342;2024-01-27T01:02:00;6.77;;;3.10;;
8048;SDS011;20935;42.660;23.342;2024-01-27T01:04:47;3.07;;;2.70;;
8048;SDS011;20935;42.660;23.342;2024-01-27T01:07:34;6.83;;;2.90;;
8048;SDS011;20935;42.660;23.342;2024-01-27T01:10:21;6.70;;;3.07;;
8048;SDS011;20935;42.660;23.342;2024-01-27T01:13:07;5.63;;;2.87;;
8048;SDS011;20935;42.660;23.342;2024-01-27T01:15:54;14.33;;;3.13;;
8048;SDS011;20935;42.660;23.342;2024-01-27T01:18:43;2.47;;;2.17;;
8048;SDS011;20935;42.660;23.342;2024-01-27T01:21:30;5.23;;;3.70;;
8048;SDS011;20935;42.660;23.342;2024-01-27T01:24:17;4.63;;;3.00;;
8048;SDS011;20935;42.660;23.342;2024-01-27T01:27:04;3.60;;;2.67;;
8048;SDS011;20935;42.660;23.342;2024-01-27T01:29:51;8.27;;;3.33;;
8048;SDS011;20935;42.660;23.342;2024-01-27T01:32:41;4.43;;;2.60;;
8048;SDS011;20935;42.660;23.342;2024-01-27T01:35:29;3.30;;;3.00;;
8048;SDS011;20935;42.660;23.342;2024-01-27T01:38:16;5.30;;;2.60;;
8048;SDS011;20935;42.660;23.342;2024-01-27T01:41:06;5.53;;;2.97;;
8048;SDS011;20935;42.660;23.342;2024-01-27T01:43:56;6.37;;;3.33;;
8048;SDS011;20935;42.660;23.342;2024-01-27T01:46:43;4.97;;;2.63;;
8048;SDS011;20935;42.660;23.342;2024-01-27T01:49:30;6.90;;;3.53;;
8048;SDS011;20935;42.660;23.342;2024-01-27T01:52:18;6.27;;;3.50;;
8048;SDS011;20935;42.660;23.342;2024-01-27T01:55:07;4.83;;;3.10;;
8048;SDS011;20935;42.660;23.342;2024-01-27T01:57:56;6.23;;;3.40;;
8048;SDS011;20935;42.660;23.342;2024-01-27T02:00:43;7.53;;;3.30;;
8048;SDS011;20935;42.660;23.342;2024-01-27T02:03:33;9.47;;;3.97;;
8048;SDS011;20935;42.660;23.342;2024-01-27T02:06:23;5.83;;;3.27;;
8048;SDS011;20935;42.660;23.342;2024-01-27T02:09:12;7.53;;;3.70;;
8048;SDS011;20935;42.660;23.342;2024-01-27T02:11:59;4.10;;;3.17;;
8048;SDS011;20935;42.660;23.342;2024-01-27T02:14:46;6.73;;;2.83;;
8048;SDS011;20935;42.660;23.342;2024-01-27T02:17:35;7.63;;;2.73;;
8048;SDS011;20935;42.660;23.342;2024-01-27T02:20:26;7.13;;;3.40;;
8048;SDS011;20935;42.660;23.342;2024-01-27T02:23:15;5.20;;;2.97;;
8048;SDS011;20935;42.660;23.342;2024-01-27T02:26:03;4.27;;;2.80;;
8048;SDS011;20935;42.660;23.342;2024-01-27T02:28:51;6.67;;;3.33;;
8048;SDS011;20935;42.660;23.342;2024-01-27T02:31:37;6.53;;;2.90;;
8048;SDS011;20935;42.660;23.342;2024-01-27T02:34:24;4.37;;;2.50;;
8048;SDS011;20935;42.660;23.342;2024-01-27T02:37:14;4.53;;;2.90;;
8048;SDS011;20935;42.660;23.342;2024-01-27T02:40:01;3.83;;;2.60;;
8048;SDS011;20935;42.660;23.342;2024-01-27T02:42:49;6.70;;;3.13;;
8048;SDS011;20935;42.660;23.342;2024-01-27T02:45:39;5.40;;;3.80;;
8048;SDS011;20935;42.660;23.342;2024-01-27T02:48:26;4.23;;;2.67;;
8048;SDS011;20935;42.660;23.342;2024-01-27T02:51:13;7.20;;;3.07;;
8048;SDS011;20935;42.660;23.342;2024-01-27T02:54:00;4.90;;;2.63;;
8048;SDS011;20935;42.660;23.342;2024-01-27T02:56:46;3.47;;;2.90;;
8048;SDS011;20935;42.660;23.342;2024-01-27T02:59:35;8.53;;;2.60;;
8048;SDS011;20935;42.660;23.342;2024-01-27T03:02:24;8.53;;;4.03;;
8048;SDS011;20935;42.660;23.342;2024-01-27T03:05:14;6.20;;;3.37;;
8048;SDS011;20935;42.660;23.342;2024-01-27T03:08:01;9.70;;;4.27;;
8048;SDS011;20935;42.660;23.342;2024-01-27T03:10:47;7.27;;;4.00;;
8048;SDS011;20935;42.660;23.342;2024-01-27T03:13:34;6.43;;;3.83;;
8048;SDS011;20935;42.660;23.342;2024-01-27T03:16:23;7.50;;;3.43;;
8048;SDS011;20935;42.660;23.342;2024-01-27T03:19:12;4.53;;;3.10;;
8048;SDS011;20935;42.660;23.342;2024-01-27T03:21:59;3.10;;;2.57;;
8048;SDS011;20935;42.660;23.342;2024-01-27T03:24:46;6.87;;;3.13;;
8048;SDS011;20935;42.660;23.342;2024-01-27T03:27:33;7.70;;;2.90;;
8048;SDS011;20935;42.660;23.342;2024-01-27T03:30:23;2.97;;;2.27;;
8048;SDS011;20935;42.660;23.342;2024-01-27T03:33:11;5.37;;;2.80;;
8048;SDS011;20935;42.660;23.342;2024-01-27T03:35:58;2.40;;;2.20;;
8048;SDS011;20935;42.660;23.342;2024-01-27T03:38:45;5.97;;;3.23;;
8048;SDS011;20935;42.660;23.342;2024-01-27T03:41:32;4.80;;;2.50;;
8048;SDS011;20935;42.660;23.342;2024-01-27T03:44:19;5.53;;;2.40;;
8048;SDS011;20935;42.660;23.342;2024-01-27T03:47:06;2.87;;;2.20;;
8048;SDS011;20935;42.660;23.342;2024-01-27T03:49:54;2.97;;;2.10;;
8048;SDS011;20935;42.660;23.342;2024-01-27T03:52:41;4.27;;;2.53;;
8048;SDS011;20935;42.660;23.342;2024-01-27T03:55:28;3.33;;;2.17;;
8048;SDS011;20935;42.660;23.342;2024-01-27T03:58:15;2.73;;;1.90;;
8048;SDS011;20935;42.660;23.342;2024-01-27T04:01:01;2.83;;;1.90;;
8048;SDS011;20935;42.660;23.342;2024-01-27T04:03:49;3.07;;;2.20;;
8048;SDS011;20935;42.660;23.342;2024-01-27T04:06:37;5.63;;;2.30;;
8048;SDS011;20935;42.660;23.342;2024-01-27T04:09:24;4.33;;;2.43;;
8048;SDS011;20935;42.660;23.342;2024-01-27T04:12:14;5.30;;;2.60;;
8048;SDS011;20935;42.660;23.342;2024-01-27T04:15:01;9.33;;;3.17;;
8048;SDS011;20935;42.660;23.342;2024-01-27T04:17:48;3.10;;;2.50;;
8048;SDS011;20935;42.660;23.342;2024-01-27T04:20:35;3.77;;;2.43;;
8048;SDS011;20935;42.660;23.342;2024-01-27T04:23:23;4.20;;;2.40;;
8048;SDS011;20935;42.660;23.342;2024-01-27T04:26:10;3.07;;;2.77;;
8048;SDS011;20935;42.660;23.342;2024-01-27T04:28:57;2.87;;;2.57;;
8048;SDS011;20935;42.660;23.342;2024-01-27T04:31:44;3.27;;;2.70;;
8048;SDS011;20935;42.660;23.342;2024-01-27T04:34:34;3.03;;;2.20;;
8048;SDS011;20935;42.660;23.342;2024-01-27T04:37:24;2.40;;;2.10;;
8048;SDS011;20935;42.660;23.342;2024-01-27T04:40:12;3.60;;;2.17;;
8048;SDS011;20935;42.660;23.342;2024-01-27T04:42:59;3.50;;;2.90;;
8048;SDS011;20935;42.660;23.342;2024-01-27T04:45:47;3.87;;;2.73;;
8048;SDS011;20935;42.660;23.342;2024-01-27T04:48:34;3.70;;;2.23;;
8048;SDS011;20935;42.660;23.342;2024-01-27T04:51:21;4.00;;;2.40;;
8048;SDS011;20935;42.660;23.342;2024-01-27T04:54:08;4.30;;;2.80;;
8048;SDS011;20935;42.660;23.342;2024-01-27T04:56:56;3.70;;;2.13;;
8048;SDS011;20935;42.660;23.342;2024-01-27T04:59:43;4.10;;;2.30;;
8048;SDS011;20935;42.660;23.342;2024-01-27T05:02:30;2.83;;;2.40;;
8048;SDS011;20935;42.660;23.342;2024-01-27T05:05:17;3.57;;;2.43;;
8048;SDS011;20935;42.660;23.342;2024-01-27T05:08:04;4.87;;;2.60;;
8048;SDS011;20935;42.660;23.342;2024-01-27T05:10:54;6.23;;;2.30;;
8048;SDS011;20935;42.660;23.342;2024-01-27T05:13:42;5.47;;;2.73;;
8048;SDS011;20935;42.660;23.342;2024-01-27T05:16:32;5.30;;;2.60;;
8048;SDS011;20935;42.660;23.342;2024-01-27T05:19:20;3.57;;;2.43;;
8048;SDS011;20935;42.660;23.342;2024-01-27T05:22:07;3.83;;;2.10;;
8048;SDS011;20935;42.660;23.342;2024-01-27T05:24:57;4.03;;;2.40;;
8048;SDS011;20935;42.660;23.342;2024-01-27T05:27:44;2.70;;;2.50;;
8048;SDS011;20935;42.660;23.342;2024-01-27T05:30:32;2.70;;;2.50;;
8048;SDS011;20935;42.660;23.342;2024-01-27T05:33:19;2.27;;;2.07;;
8048;SDS011;20935;42.660;23.342;2024-01-27T05:36:06;4.37;;;2.10;;
8048;SDS011;20935;42.660;23.342;2024-01-27T05:38:53;3.53;;;2.30;;
8048;SDS011;20935;42.660;23.342;2024-01-27T05:41:39;4.53;;;2.93;;
8048;SDS011;20935;42.660;23.342;2024-01-27T05:44:26;2.97;;;1.93;;
8048;SDS011;20935;42.660;23.342;2024-01-27T05:47:17;7.87;;;2.40;;
8048;SDS011;20935;42.660;23.342;2024-01-27T05:50:10;3.97;;;2.13;;
8048;SDS011;20935;42.660;23.342;2024-01-27T05:52:57;4.80;;;2.83;;
8048;SDS011;20935;42.660;23.342;2024-01-27T05:55:44;4.47;;;3.67;;
8048;SDS011;20935;42.660;23.342;2024-01-27T05:58:33;4.37;;;3.00;;
8048;SDS011;20935;42.660;23.342;2024-01-27T06:01:22;5.40;;;3.07;;
8048;SDS011;20935;42.660;23.342;2024-01-27T06:04:11;7.97;;;3.50;;
8048;SDS011;20935;42.660;23.342;2024-01-27T06:06:59;5.57;;;3.50;;
8048;SDS011;20935;42.660;23.342;2024-01-27T06:09:45;5.70;;;3.80;;
8048;SDS011;20935;42.660;23.342;2024-01-27T06:12:32;6.30;;;3.63;;
8048;SDS011;20935;42.660;23.342;2024-01-27T06:15:20;9.30;;;4.07;;
8048;SDS011;20935;42.660;23.342;2024-01-27T06:18:07;4.87;;;3.93;;
8048;SDS011;20935;42.660;23.342;2024-01-27T06:20:58;8.40;;;5.13;;
8048;SDS011;20935;42.660;23.342;2024-01-27T06:23:44;8.50;;;5.60;;
8048;SDS011;20935;42.660;23.342;2024-01-27T06:26:31;9.63;;;6.10;;
8048;SDS011;20935;42.660;23.342;2024-01-27T06:29:21;11.23;;;6.57;;
8048;SDS011;20935;42.660;23.342;2024-01-27T06:32:11;5.10;;;4.13;;
8048;SDS011;20935;42.660;23.342;2024-01-27T06:35:01;7.70;;;4.63;;
8048;SDS011;20935;42.660;23.342;2024-01-27T06:37:49;6.20;;;4.13;;
8048;SDS011;20935;42.660;23.342;2024-01-27T06:40:36;6.00;;;3.70;;
8048;SDS011;20935;42.660;23.342;2024-01-27T06:43:29;6.27;;;3.07;;
8048;SDS011;20935;42.660;23.342;2024-01-27T06:46:16;4.00;;;2.50;;
8048;SDS011;20935;42.660;23.342;2024-01-27T06:49:03;6.20;;;2.70;;
8048;SDS011;20935;42.660;23.342;2024-01-27T06:51:50;1.90;;;1.20;;
8048;SDS011;20935;42.660;23.342;2024-01-27T06:54:41;6.43;;;2.77;;
8048;SDS011;20935;42.660;23.342;2024-01-27T06:57:29;2.83;;;2.10;;
8048;SDS011;20935;42.660;23.342;2024-01-27T07:00:17;6.27;;;2.80;;
8048;SDS011;20935;42.660;23.342;2024-01-27T07:03:04;6.63;;;3.00;;
8048;SDS011;20935;42.660;23.342;2024-01-27T07:05:51;3.10;;;2.33;;
8048;SDS011;20935;42.660;23.342;2024-01-27T07:08:38;2.60;;;1.93;;
8048;SDS011;20935;42.660;23.342;2024-01-27T07:11:26;7.40;;;2.87;;
8048;SDS011;20935;42.660;23.342;2024-01-27T07:14:13;8.33;;;3.77;;
8048;SDS011;20935;42.660;23.342;2024-01-27T07:17:00;8.30;;;4.37;;
8048;SDS011;20935;42.660;23.342;2024-01-27T07:19:47;11.00;;;4.27;;
8048;SDS011;20935;42.660;23.342;2024-01-27T07:22:34;7.13;;;3.60;;
8048;SDS011;20935;42.660;23.342;2024-01-27T07:25:21;5.93;;;3.03;;
8048;SDS011;20935;42.660;23.342;2024-01-27T07:28:09;3.23;;;1.90;;
8048;SDS011;20935;42.660;23.342;2024-01-27T07:30:56;3.67;;;2.30;;
8048;SDS011;20935;42.660;23.342;2024-01-27T07:33:43;3.27;;;2.57;;
8048;SDS011;20935;42.660;23.342;2024-01-27T07:36:29;3.83;;;2.40;;
8048;SDS011;20935;42.660;23.342;2024-01-27T07:39:17;1.53;;;1.43;;
8048;SDS011;20935;42.660;23.342;2024-01-27T07:42:04;2.03;;;1.63;;
8048;SDS011;20935;42.660;23.342;2024-01-27T07:44:53;1.90;;;1.80;;
8048;SDS011;20935;42.660;23.342;2024-01-27T07:47:40;2.57;;;2.10;;
8048;SDS011;20935;42.660;23.342;2024-01-27T07:50:29;4.13;;;2.20;;
8048;SDS011;20935;42.660;23.342;2024-01-27T07:53:19;3.30;;;2.30;;
8048;SDS011;20935;42.660;23.342;2024-01-27T07:56:07;2.43;;;2.23;;
8048;SDS011;20935;42.660;23.342;2024-01-27T07:58:53;3.13;;;1.93;;
8048;SDS011;20935;42.660;23.342;2024-01-27T08:01:42;4.07;;;2.83;;
8048;SDS011;20935;42.660;23.342;2024-01-27T08:04:31;2.57;;;2.37;;
8048;SDS011;20935;42.660;23.342;2024-01-27T08:07:18;4.10;;;2.10;;
8048;SDS011;20935;42.660;23.342;2024-01-27T08:10:05;2.67;;;2.30;;
8048;SDS011;20935;42.660;23.342;2024-01-27T08:12:56;2.40;;;2.00;;
8048;SDS011;20935;42.660;23.342;2024-01-27T08:15:43;4.60;;;2.30;;
8048;SDS011;20935;42.660;23.342;2024-01-27T08:18:34;3.43;;;2.40;;
8048;SDS011;20935;42.660;23.342;2024-01-27T08:21:20;2.63;;;2.17;;
8048;SDS011;20935;42.660;23.342;2024-01-27T08:24:08;3.07;;;1.90;;
8048;SDS011;20935;42.660;23.342;2024-01-27T08:26:55;3.63;;;2.53;;
8048;SDS011;20935;42.660;23.342;2024-01-27T08:29:41;2.60;;;2.40;;
8048;SDS011;20935;42.660;23.342;2024-01-27T08:32:28;4.53;;;2.67;;
8048;SDS011;20935;42.660;23.342;2024-01-27T08:35:16;2.33;;;2.13;;
8048;SDS011;20935;42.660;23.342;2024-01-27T08:38:03;3.30;;;2.93;;
8048;SDS011;20935;42.660;23.342;2024-01-27T08:40:54;2.73;;;2.23;;
8048;SDS011;20935;42.660;23.342;2024-01-27T08:43:41;4.00;;;2.43;;
8048;SDS011;20935;42.660;23.342;2024-01-27T08:46:31;2.87;;;2.67;;
8048;SDS011;20935;42.660;23.342;2024-01-27T08:49:18;3.30;;;2.57;;
8048;SDS011;20935;42.660;23.342;2024-01-27T08:52:06;2.53;;;2.33;;
8048;SDS011;20935;42.660;23.342;2024-01-27T08:54:53;2.47;;;2.27;;
8048;SDS011;20935;42.660;23.342;2024-01-27T08:57:40;2.87;;;2.40;;
8048;SDS011;20935;42.660;23.342;2024-01-27T09:00:27;2.30;;;2.10;;
8048;SDS011;20935;42.660;23.342;2024-01-27T09:03:14;2.73;;;2.37;;
8048;SDS011;20935;42.660;23.342;2024-01-27T09:06:03;3.13;;;2.73;;
8048;SDS011;20935;42.660;23.342;2024-01-27T09:08:51;3.67;;;2.37;;
8048;SDS011;20935;42.660;23.342;2024-01-27T09:11:42;2.87;;;2.30;;
8048;SDS011;20935;42.660;23.342;2024-01-27T09:14:30;4.97;;;2.40;;
8048;SDS011;20935;42.660;23.342;2024-01-27T09:17:19;2.67;;;2.47;;
8048;SDS011;20935;42.660;23.342;2024-01-27T09:20:06;2.20;;;2.00;;
8048;SDS011;20935;42.660;23.342;2024-01-27T09:22:53;3.03;;;2.23;;
8048;SDS011;20935;42.660;23.342;2024-01-27T09:25:41;2.00;;;1.90;;
8048;SDS011;20935;42.660;23.342;2024-01-27T09:28:28;2.97;;;2.27;;
8048;SDS011;20935;42.660;23.342;2024-01-27T09:31:15;3.23;;;2.10;;
8048;SDS011;20935;42.660;23.342;2024-01-27T09:34:02;2.10;;;2.00;;
8048;SDS011;20935;42.660;23.342;2024-01-27T09:36:49;4.37;;;2.33;;
8048;SDS011;20935;42.660;23.342;2024-01-27T09:39:35;2.63;;;2.43;;
8048;SDS011;20935;42.660;23.342;2024-01-27T09:42:24;2.20;;;2.10;;
8048;SDS011;20935;42.660;23.342;2024-01-27T09:45:11;3.13;;;2.17;;
8048;SDS011;20935;42.660;23.342;2024-01-27T09:47:58;3.03;;;2.60;;
8048;SDS011;20935;42.660;23.342;2024-01-27T09:50:46;2.03;;;1.90;;
8048;SDS011;20935;42.660;23.342;2024-01-27T09:53:33;2.80;;;2.60;;
8048;SDS011;20935;42.660;23.342;2024-01-27T09:56:20;2.47;;;2.27;;
8048;SDS011;20935;42.660;23.342;2024-01-27T09:59:09;1.93;;;1.80;;
8048;SDS011;20935;42.660;23.342;2024-01-27T10:01:58;4.23;;;2.67;;
8048;SDS011;20935;42.660;23.342;2024-01-27T10:04:43;2.47;;;2.27;;
8048;SDS011;20935;42.660;23.342;2024-01-27T10:07:32;2.27;;;2.00;;
8048;SDS011;20935;42.660;23.342;2024-01-27T10:10:17;2.10;;;2.00;;
8048;SDS011;20935;42.660;23.342;2024-01-27T10:13:02;2.30;;;2.10;;
8048;SDS011;20935;42.660;23.342;2024-01-27T10:16:00;3.97;;;2.10;;
8048;SDS011;20935;42.660;23.342;2024-01-27T10:18:45;2.00;;;1.80;;
8048;SDS011;20935;42.660;23.342;2024-01-27T10:21:30;2.17;;;1.87;;
8048;SDS011;20935;42.660;23.342;2024-01-27T10:24:16;4.33;;;2.10;;
8048;SDS011;20935;42.660;23.342;2024-01-27T10:27:06;2.83;;;2.63;;
8048;SDS011;20935;42.660;23.342;2024-01-27T10:29:52;2.10;;;1.90;;
8048;SDS011;20935;42.660;23.342;2024-01-27T10:32:41;2.10;;;1.90;;
8048;SDS011;20935;42.660;23.342;2024-01-27T10:35:29;3.10;;;2.10;;
8048;SDS011;20935;42.660;23.342;2024-01-27T10:38:14;1.90;;;1.80;;
8048;SDS011;20935;42.660;23.342;2024-01-27T10:41:00;2.10;;;2.00;;
8048;SDS011;20935;42.660;23.342;2024-01-27T10:43:46;1.97;;;1.87;;
8048;SDS011;20935;42.660;23.342;2024-01-27T10:46:36;1.90;;;1.80;;
8048;SDS011;20935;42.660;23.342;2024-01-27T10:49:23;2.23;;;2.13;;
8048;SDS011;20935;42.660;23.342;2024-01-27T10:52:10;1.93;;;1.83;;
8048;SDS011;20935;42.660;23.342;2024-01-27T10:55:00;1.77;;;1.67;;
8048;SDS011;20935;42.660;23.342;2024-01-27T10:57:46;1.90;;;1.80;;
8048;SDS011;20935;42.660;23.342;2024-01-27T11:00:32;3.27;;;2.23;;
8048;SDS011;20935;42.660;23.342;2024-01-27T11:03:18;2.50;;;1.90;;
8048;SDS011;20935;42.660;23.342;2024-01-27T11:06:05;2.60;;;2.40;;
8048;SDS011;20935;42.660;23.342;2024-01-27T11:08:51;2.13;;;2.03;;
8048;SDS011;20935;42.660;23.342;2024-01-27T11:11:37;1.93;;;1.83;;
8048;SDS011;20935;42.660;23.342;2024-01-27T11:14:22;2.73;;;2.23;;
8048;SDS011;20935;42.660;23.342;2024-01-27T11:17:08;2.30;;;2.10;;
8048;SDS011;20935;42.660;23.342;2024-01-27T11:19:55;2.83;;;2.60;;
8048;SDS011;20935;42.660;23.342;2024-01-27T11:22:44;2.50;;;2.30;;
8048;SDS011;20935;42.660;23.342;2024-01-27T11:25:30;2.50;;;2.30;;
8048;SDS011;20935;42.660;23.342;2024-01-27T11:28:15;3.20;;;2.37;;
8048;SDS011;20935;42.660;23.342;2024-01-27T11:31:02;3.50;;;2.80;;
8048;SDS011;20935;42.660;23.342;2024-01-27T11:33:51;3.23;;;2.93;;
8048;SDS011;20935;42.660;23.342;2024-01-27T11:36:37;3.00;;;2.80;;
8048;SDS011;20935;42.660;23.342;2024-01-27T11:39:27;3.87;;;2.83;;
8048;SDS011;20935;42.660;23.342;2024-01-27T11:42:13;2.67;;;2.50;;
8048;SDS011;20935;42.660;23.342;2024-01-27T11:44:58;3.10;;;2.77;;
8048;SDS011;20935;42.660;23.342;2024-01-27T11:47:43;2.93;;;2.73;;
8048;SDS011;20935;42.660;23.342;2024-01-27T11:50:34;3.43;;;3.17;;
8048;SDS011;20935;42.660;23.342;2024-01-27T11:53:21;2.50;;;2.30;;
8048;SDS011;20935;42.660;23.342;2024-01-27T11:56:09;2.60;;;2.40;;
8048;SDS011;20935;42.660;23.342;2024-01-27T11:58:54;2.50;;;2.30;;
8048;SDS011;20935;42.660;23.342;2024-01-27T12:01:40;2.53;;;2.27;;
8048;SDS011;20935;42.660;23.342;2024-01-27T12:04:25;3.00;;;2.37;;
8048;SDS011;20935;42.660;23.342;2024-01-27T12:07:14;4.37;;;2.90;;
8048;SDS011;20935;42.660;23.342;2024-01-27T12:10:02;3.73;;;2.40;;
8048;SDS011;20935;42.660;23.342;2024-01-27T12:12:49;2.83;;;2.63;;
8048;SDS011;20935;42.660;23.342;2024-01-27T12:15:34;2.83;;;2.60;;
8048;SDS011;20935;42.660;23.342;2024-01-27T12:18:19;4.20;;;2.60;;
8048;SDS011;20935;42.660;23.342;2024-01-27T12:21:05;3.13;;;2.80;;
8048;SDS011;20935;42.660;23.342;2024-01-27T12:23:54;3.77;;;2.20;;
8048;SDS011;20935;42.660;23.342;2024-01-27T12:26:42;2.77;;;2.57;;
8048;SDS011;20935;42.660;23.342;2024-01-27T12:29:29;2.53;;;2.33;;
8048;SDS011;20935;42.660;23.342;2024-01-27T12:32:17;2.60;;;2.40;;
8048;SDS011;20935;42.660;23.342;2024-01-27T12:35:04;2.60;;;2.40;;
8048;SDS011;20935;42.660;23.342;2024-01-27T12:37:52;3.33;;;2.50;;
8048;SDS011;20935;42.660;23.342;2024-01-27T12:40:38;2.50;;;2.30;;
8048;SDS011;20935;42.660;23.342;2024-01-27T12:43:23;2.60;;;2.40;;
8048;SDS011;20935;42.660;23.342;2024-01-27T12:46:09;2.43;;;2.30;;
8048;SDS011;20935;42.660;23.342;2024-01-27T12:48:56;3.50;;;2.23;;
8048;SDS011;20935;42.660;23.342;2024-01-27T12:51:44;2.90;;;2.60;;
8048;SDS011;20935;42.660;23.342;2024-01-27T12:54:31;2.20;;;2.10;;
8048;SDS011;20935;42.660;23.342;2024-01-27T12:57:20;3.20;;;2.80;;
8048;SDS011;20935;42.660;23.342;2024-01-27T13:00:06;3.50;;;2.23;;
8048;SDS011;20935;42.660;23.342;2024-01-27T13:02:55;2.53;;;2.33;;
8048;SDS011;20935;42.660;23.342;2024-01-27T13:05:42;3.27;;;2.80;;
8048;SDS011;20935;42.660;23.342;2024-01-27T13:08:29;4.57;;;2.70;;
8048;SDS011;20935;42.660;23.342;2024-01-27T13:11:16;2.90;;;2.70;;
8048;SDS011;20935;42.660;23.342;2024-01-27T13:14:03;2.37;;;2.10;;
8048;SDS011;20935;42.660;23.342;2024-01-27T13:16:50;2.40;;;2.20;;
8048;SDS011;20935;42.660;23.342;2024-01-27T13:19:40;2.60;;;2.40;;
8048;SDS011;20935;42.660;23.342;2024-01-27T13:22:27;3.03;;;2.37;;
8048;SDS011;20935;42.660;23.342;2024-01-27T13:25:14;2.50;;;2.30;;
8048;SDS011;20935;42.660;23.342;2024-01-27T13:28:04;2.83;;;1.80;;
8048;SDS011;20935;42.660;23.342;2024-01-27T13:30:52;2.53;;;2.10;;
8048;SDS011;20935;42.660;23.342;2024-01-27T13:33:40;2.40;;;2.20;;
8048;SDS011;20935;42.660;23.342;2024-01-27T13:36:28;5.67;;;2.17;;
8048;SDS011;20935;42.660;23.342;2024-01-27T13:39:15;2.53;;;2.33;;
8048;SDS011;20935;42.660;23.342;2024-01-27T13:42:02;4.47;;;2.17;;
8048;SDS011;20935;42.660;23.342;2024-01-27T13:44:49;2.83;;;1.90;;
8048;SDS011;20935;42.660;23.342;2024-01-27T13:47:36;2.17;;;1.90;;
8048;SDS011;20935;42.660;23.342;2024-01-27T13:50:22;2.50;;;2.30;;
8048;SDS011;20935;42.660;23.342;2024-01-27T13:53:12;3.73;;;2.10;;
8048;SDS011;20935;42.660;23.342;2024-01-27T13:55:59;2.60;;;2.20;;
8048;SDS011;20935;42.660;23.342;2024-01-27T13:58:46;3.70;;;2.33;;
8048;SDS011;20935;42.660;23.342;2024-01-27T14:01:36;2.33;;;1.83;;
8048;SDS011;20935;42.660;23.342;2024-01-27T14:04:23;5.17;;;2.43;;
8048;SDS011;20935;42.660;23.342;2024-01-27T14:07:10;2.43;;;2.13;;
8048;SDS011;20935;42.660;23.342;2024-01-27T14:09:58;2.20;;;2.00;;
8048;SDS011;20935;42.660;23.342;2024-01-27T14:12:46;2.70;;;2.27;;
8048;SDS011;20935;42.660;23.342;2024-01-27T14:15:36;2.87;;;2.10;;
8048;SDS011;20935;42.660;23.342;2024-01-27T14:18:22;2.97;;;2.10;;
8048;SDS011;20935;42.660;23.342;2024-01-27T14:21:09;2.50;;;1.90;;
8048;SDS011;20935;42.660;23.342;2024-01-27T14:23:56;2.90;;;1.77;;
8048;SDS011;20935;42.660;23.342;2024-01-27T14:26:49;1.97;;;1.50;;
8048;SDS011;20935;42.660;23.342;2024-01-27T14:29:36;2.23;;;2.03;;
8048;SDS011;20935;42.660;23.342;2024-01-27T14:32:23;2.87;;;2.27;;
8048;SDS011;20935;42.660;23.342;2024-01-27T14:35:10;3.70;;;1.90;;
8048;SDS011;20935;42.660;23.342;2024-01-27T14:37:57;1.80;;;1.50;;
8048;SDS011;20935;42.660;23.342;2024-01-27T14:40:47;2.90;;;1.60;;
8048;SDS011;20935;42.660;23.342;2024-01-27T14:43:35;2.30;;;1.90;;
8048;SDS011;20935;42.660;23.342;2024-01-27T14:46:23;1.90;;;1.80;;
8048;SDS011;20935;42.660;23.342;2024-01-27T14:49:10;4.60;;;2.00;;
8048;SDS011;20935;42.660;23.342;2024-01-27T14:51:57;1.73;;;1.63;;
8048;SDS011;20935;42.660;23.342;2024-01-27T14:54:44;1.60;;;1.40;;
8048;SDS011;20935;42.660;23.342;2024-01-27T14:57:33;2.57;;;2.00;;
8048;SDS011;20935;42.660;23.342;2024-01-27T15:00:22;2.77;;;2.50;;
8048;SDS011;20935;42.660;23.342;2024-01-27T15:03:12;1.97;;;1.77;;
8048;SDS011;20935;42.660;23.342;2024-01-27T15:05:59;3.10;;;1.90;;
8048;SDS011;20935;42.660;23.342;2024-01-27T15:08:45;3.43;;;2.00;;
8048;SDS011;20935;42.660;23.342;2024-01-27T15:11:35;2.03;;;1.83;;
8048;SDS011;20935;42.660;23.342;2024-01-27T15:14:22;4.13;;;1.80;;
8048;SDS011;20935;42.660;23.342;2024-01-27T15:17:11;5.53;;;2.30;;
8048;SDS011;20935;42.660;23.342;2024-01-27T15:20:02;5.87;;;2.17;;
8048;SDS011;20935;42.660;23.342;2024-01-27T15:22:49;4.70;;;2.30;;
8048;SDS011;20935;42.660;23.342;2024-01-27T15:25:39;4.73;;;2.10;;
8048;SDS011;20935;42.660;23.342;2024-01-27T15:28:26;3.30;;;2.30;;
8048;SDS011;20935;42.660;23.342;2024-01-27T15:31:13;4.97;;;2.10;;
8048;SDS011;20935;42.660;23.342;2024-01-27T15:34:04;4.20;;;1.97;;
8048;SDS011;20935;42.660;23.342;2024-01-27T15:36:53;3.97;;;2.30;;
8048;SDS011;20935;42.660;23.342;2024-01-27T15:39:40;1.97;;;1.87;;
8048;SDS011;20935;42.660;23.342;2024-01-27T15:42:28;3.33;;;1.90;;
8048;SDS011;20935;42.660;23.342;2024-01-27T15:45:15;2.90;;;2.10;;
8048;SDS011;20935;42.660;23.342;2024-01-27T15:48:02;3.07;;;2.13;;
8048;SDS011;20935;42.660;23.342;2024-01-27T15:50:50;3.53;;;2.10;;
8048;SDS011;20935;42.660;23.342;2024-01-27T15:53:37;4.00;;;2.10;;
8048;SDS011;20935;42.660;23.342;2024-01-27T15:56:24;4.13;;;2.40;;
8048;SDS011;20935;42.660;23.342;2024-01-27T15:59:11;4.43;;;2.50;;
8048;SDS011;20935;42.660;23.342;2024-01-27T16:01:58;2.60;;;2.40;;
8048;SDS011;20935;42.660;23.342;2024-01-27T16:04:45;2.73;;;2.40;;
8048;SDS011;20935;42.660;23.342;2024-01-27T16:07:33;5.27;;;2.00;;
8048;SDS011;20935;42.660;23.342;2024-01-27T16:10:20;3.57;;;2.70;;
8048;SDS011;20935;42.660;23.342;2024-01-27T16:13:07;6.53;;;2.30;;
8048;SDS011;20935;42.660;23.342;2024-01-27T16:15:54;3.10;;;2.53;;
8048;SDS011;20935;42.660;23.342;2024-01-27T16:18:41;2.80;;;2.40;;
8048;SDS011;20935;42.660;23.342;2024-01-27T16:21:28;3.20;;;2.73;;
8048;SDS011;20935;42.660;23.342;2024-01-27T16:24:16;5.03;;;2.53;;
8048;SDS011;20935;42.660;23.342;2024-01-27T16:27:04;4.00;;;2.17;;
8048;SDS011;20935;42.660;23.342;2024-01-27T16:29:51;5.60;;;2.27;;
8048;SDS011;20935;42.660;23.342;2024-01-27T16:32:38;3.50;;;1.80;;
8048;SDS011;20935;42.660;23.342;2024-01-27T16:35:25;4.37;;;2.60;;
8048;SDS011;20935;42.660;23.342;2024-01-27T16:38:13;2.83;;;2.10;;
8048;SDS011;20935;42.660;23.342;2024-01-27T16:41:01;4.07;;;2.77;;
8048;SDS011;20935;42.660;23.342;2024-01-27T16:43:48;2.80;;;2.30;;
8048;SDS011;20935;42.660;23.342;2024-01-27T16:46:37;5.87;;;2.20;;
8048;SDS011;20935;42.660;23.342;2024-01-27T16:49:23;4.43;;;2.87;;